createdAt,value
2017-08-26T00:00:57.127Z,10.27
2017-08-26T00:03:24.695Z,10.53
2017-08-26T00:05:52.231Z,9.90
2017-08-26T00:08:19.799Z,10.77
2017-08-26T00:10:47.335Z,12.73
2017-08-26T00:13:14.917Z,10.23
2017-08-26T00:15:42.446Z,13.17
2017-08-26T00:18:10.023Z,10.93
2017-08-26T00:20:37.559Z,10.70
2017-08-26T00:23:05.092Z,9.40
2017-08-26T00:25:32.699Z,13.13
2017-08-26T00:28:00.258Z,26.63
2017-08-26T00:30:27.789Z,26.30
2017-08-26T00:32:56.107Z,14.07
2017-08-26T00:35:23.658Z,9.57
2017-08-26T00:37:51.191Z,9.53
2017-08-26T00:40:19.506Z,11.93
2017-08-26T00:42:47.060Z,11.00
2017-08-26T00:45:14.618Z,13.70
2017-08-26T00:47:42.182Z,12.37
2017-08-26T00:50:09.738Z,10.23
2017-08-26T00:52:37.262Z,9.57
2017-08-26T00:55:04.858Z,9.17
2017-08-26T00:57:32.430Z,9.77
2017-08-26T00:59:59.959Z,9.17
2017-08-26T01:02:27.488Z,8.67
2017-08-26T01:04:55.112Z,7.93
2017-08-26T01:07:28.251Z,10.17
2017-08-26T01:09:55.787Z,9.80
2017-08-26T01:12:23.342Z,9.47
2017-08-26T01:14:50.870Z,11.70
2017-08-26T01:17:19.203Z,8.57
2017-08-26T01:19:46.748Z,10.17
2017-08-26T01:22:14.303Z,8.80
2017-08-26T01:24:41.879Z,12.53
2017-08-26T01:27:09.410Z,10.20
2017-08-26T01:29:36.993Z,9.30
2017-08-26T01:32:04.561Z,9.23
2017-08-26T01:34:32.214Z,9.90
2017-08-26T01:36:59.783Z,9.97
2017-08-26T01:39:27.335Z,9.20
2017-08-26T01:41:54.865Z,11.00
2017-08-26T01:44:23.184Z,8.10
2017-08-26T01:46:50.714Z,9.83
2017-08-26T01:49:18.267Z,13.60
2017-08-26T01:51:45.797Z,14.33
2017-08-26T01:54:13.357Z,14.07
2017-08-26T01:56:40.892Z,10.80
2017-08-26T01:59:08.429Z,13.13
2017-08-26T02:01:35.962Z,12.40
2017-08-26T02:04:03.486Z,8.63
2017-08-26T02:06:31.034Z,9.93
2017-08-26T02:08:58.564Z,8.90
2017-08-26T02:11:26.110Z,8.80
2017-08-26T02:13:53.632Z,9.13
2017-08-26T02:16:21.183Z,8.90
2017-08-26T02:18:48.711Z,8.90
2017-08-26T02:21:16.263Z,11.23
2017-08-26T02:23:43.794Z,9.60
2017-08-26T02:26:11.347Z,9.20
2017-08-26T02:28:38.958Z,8.63
2017-08-26T02:31:06.522Z,8.50
2017-08-26T02:33:34.051Z,9.80
2017-08-26T02:36:01.583Z,10.10
2017-08-26T02:38:29.440Z,10.50
2017-08-26T02:40:57.084Z,9.30
2017-08-26T02:43:24.743Z,13.23
2017-08-26T02:45:52.270Z,12.23
2017-08-26T02:48:19.826Z,13.13
2017-08-26T02:50:48.118Z,8.70
2017-08-26T02:53:15.700Z,10.87
2017-08-26T02:55:43.223Z,9.07
2017-08-26T02:58:10.818Z,9.07
2017-08-26T03:00:38.382Z,12.30
2017-08-26T03:03:05.910Z,10.70
2017-08-26T03:05:33.439Z,17.03
2017-08-26T03:08:01.740Z,9.07
2017-08-26T03:10:29.268Z,8.53
2017-08-26T03:12:56.793Z,13.57
2017-08-26T03:15:24.331Z,12.13
2017-08-26T03:17:51.858Z,9.17
2017-08-26T03:20:19.411Z,9.40
2017-08-26T03:22:46.940Z,8.60
2017-08-26T03:25:14.474Z,19.10
2017-08-26T03:27:42.003Z,10.33
2017-08-26T03:30:09.527Z,9.50
2017-08-26T03:32:37.054Z,10.80
2017-08-26T03:35:05.347Z,8.80
2017-08-26T03:37:32.872Z,9.53
2017-08-26T03:40:00.407Z,10.33
2017-08-26T03:42:27.937Z,9.70
2017-08-26T03:44:55.472Z,11.33
2017-08-26T03:47:23.767Z,12.57
2017-08-26T03:49:51.291Z,9.30
2017-08-26T03:52:18.824Z,8.67
2017-08-26T03:54:46.356Z,9.00
2017-08-26T03:57:13.909Z,14.27
2017-08-26T03:59:41.441Z,10.87
2017-08-26T04:02:09.006Z,18.43
2017-08-26T04:04:36.542Z,11.30
2017-08-26T04:07:04.080Z,14.33
2017-08-26T04:09:31.618Z,14.73
2017-08-26T04:11:59.154Z,15.93
2017-08-26T04:14:26.695Z,12.17
2017-08-26T04:16:54.227Z,10.30
2017-08-26T04:19:21.760Z,9.57
2017-08-26T04:21:49.292Z,11.00
2017-08-26T04:24:16.839Z,13.73
2017-08-26T04:26:44.375Z,11.37
2017-08-26T04:29:11.911Z,74.50
2017-08-26T04:31:39.453Z,41.40
2017-08-26T04:34:06.983Z,9.20
2017-08-26T04:36:34.519Z,10.80
2017-08-26T04:39:02.079Z,24.40
2017-08-26T04:41:29.666Z,9.97
2017-08-26T04:43:57.226Z,7.97
2017-08-26T04:46:24.758Z,14.97
2017-08-26T04:48:52.287Z,10.07
2017-08-26T04:51:19.819Z,12.90
2017-08-26T04:53:47.346Z,8.90
2017-08-26T04:56:14.881Z,13.60
2017-08-26T04:58:42.411Z,12.30
2017-08-26T05:01:09.963Z,19.80
2017-08-26T05:03:37.489Z,11.70
2017-08-26T05:06:05.043Z,23.07
2017-08-26T05:08:32.576Z,14.10
2017-08-26T05:11:00.143Z,28.13
2017-08-26T05:13:27.668Z,10.90
2017-08-26T05:16:04.886Z,19.43
2017-08-26T05:18:32.410Z,18.37
2017-08-26T05:20:59.939Z,11.73
2017-08-26T05:23:27.466Z,8.50
2017-08-26T05:25:55.108Z,17.90
2017-08-26T05:28:22.647Z,20.90
2017-08-26T05:30:50.208Z,14.23
2017-08-26T05:33:17.762Z,10.83
2017-08-26T05:35:45.294Z,10.83
2017-08-26T05:38:13.610Z,11.57
2017-08-26T05:40:41.138Z,8.47
2017-08-26T05:43:08.723Z,9.73
2017-08-26T05:45:36.254Z,15.73
2017-08-26T05:48:03.790Z,16.83
2017-08-26T05:50:31.322Z,11.03
2017-08-26T05:52:58.852Z,9.33
2017-08-26T05:55:26.462Z,8.33
2017-08-26T05:57:53.999Z,8.67
2017-08-26T06:00:21.535Z,13.87
2017-08-26T06:02:49.072Z,10.10
2017-08-26T06:05:16.611Z,8.77
2017-08-26T06:07:44.142Z,8.93
2017-08-26T06:10:11.700Z,13.27
2017-08-26T06:12:39.243Z,17.27
2017-08-26T06:15:07.588Z,19.50
2017-08-26T06:17:35.126Z,9.50
2017-08-26T06:20:02.673Z,12.70
2017-08-26T06:22:30.206Z,9.67
2017-08-26T06:24:57.738Z,10.70
2017-08-26T06:27:25.274Z,19.20
2017-08-26T06:29:52.810Z,12.37
2017-08-26T06:32:20.347Z,12.00
2017-08-26T06:34:47.882Z,12.43
2017-08-26T06:37:15.407Z,9.70
2017-08-26T06:39:42.938Z,11.47
2017-08-26T06:42:11.259Z,15.30
2017-08-26T06:44:38.791Z,11.97
2017-08-26T06:47:06.342Z,15.93
2017-08-26T06:49:34.642Z,15.77
2017-08-26T06:52:02.199Z,9.57
2017-08-26T06:54:29.820Z,13.63
2017-08-26T06:56:57.515Z,14.67
2017-08-26T06:59:25.067Z,17.67
2017-08-26T07:01:52.631Z,10.80
2017-08-26T07:04:20.158Z,8.40
2017-08-26T07:06:47.695Z,12.67
2017-08-26T07:09:15.228Z,15.97
2017-08-26T07:11:42.754Z,9.50
2017-08-26T07:14:10.301Z,16.13
2017-08-26T07:16:37.830Z,7.47
2017-08-26T07:19:05.359Z,7.63
2017-08-26T07:21:32.904Z,10.73
2017-08-26T07:24:00.467Z,10.50
2017-08-26T07:26:28.763Z,16.23
2017-08-26T07:28:56.343Z,11.20
2017-08-26T07:31:23.875Z,17.93
2017-08-26T07:33:51.439Z,16.50
2017-08-26T07:36:18.979Z,12.03
2017-08-26T07:38:46.532Z,7.63
2017-08-26T07:41:14.122Z,11.87
2017-08-26T07:43:41.695Z,22.07
2017-08-26T07:46:09.233Z,41.87
2017-08-26T07:48:36.773Z,14.60
2017-08-26T07:51:04.315Z,16.20
2017-08-26T07:53:31.852Z,21.60
2017-08-26T07:55:59.383Z,10.30
2017-08-26T07:58:26.918Z,89.03
2017-08-26T08:00:54.464Z,39.73
2017-08-26T08:03:22.004Z,21.70
2017-08-26T08:05:49.568Z,24.57
2017-08-26T08:08:17.116Z,13.03
2017-08-26T08:10:44.691Z,39.90
2017-08-26T08:13:12.219Z,25.10
2017-08-26T08:15:39.754Z,13.53
2017-08-26T08:18:07.296Z,12.03
2017-08-26T08:20:34.835Z,30.67
2017-08-26T08:23:02.399Z,19.00
2017-08-26T08:25:29.951Z,17.30
2017-08-26T08:27:57.519Z,10.30
2017-08-26T08:30:25.060Z,9.67
2017-08-26T08:32:52.586Z,8.10
2017-08-26T08:35:20.127Z,12.43
2017-08-26T08:37:47.671Z,8.80
2017-08-26T08:40:15.206Z,6.97
2017-08-26T08:42:42.739Z,13.13
2017-08-26T08:45:10.295Z,6.67
2017-08-26T08:47:37.822Z,6.27
2017-08-26T08:50:05.438Z,9.20
2017-08-26T08:52:32.967Z,9.47
2017-08-26T08:55:00.522Z,6.53
2017-08-26T08:57:28.055Z,7.20
2017-08-26T08:59:55.591Z,6.20
2017-08-26T09:02:23.121Z,13.33
2017-08-26T09:04:50.647Z,7.00
2017-08-26T09:07:18.211Z,7.07
2017-08-26T09:09:45.744Z,9.37
2017-08-26T09:12:13.299Z,9.40
2017-08-26T09:14:40.834Z,10.03
2017-08-26T09:17:08.366Z,13.93
2017-08-26T09:19:35.906Z,10.43
2017-08-26T09:22:03.439Z,8.93
2017-08-26T09:24:30.973Z,12.47
2017-08-26T09:26:58.502Z,7.93
2017-08-26T09:29:26.030Z,6.23
2017-08-26T09:31:53.563Z,11.33
2017-08-26T09:34:21.086Z,6.70
2017-08-26T09:36:48.611Z,8.63
2017-08-26T09:39:16.150Z,6.83
2017-08-26T09:41:43.675Z,7.47
2017-08-26T09:44:11.206Z,9.40
2017-08-26T09:46:38.775Z,7.33
2017-08-26T09:49:06.316Z,11.87
2017-08-26T09:51:33.850Z,8.40
2017-08-26T09:54:01.374Z,6.53
2017-08-26T09:56:28.915Z,7.40
2017-08-26T09:58:56.455Z,9.07
2017-08-26T10:01:24.087Z,10.13
2017-08-26T10:03:51.619Z,7.80
2017-08-26T10:06:19.152Z,10.63
2017-08-26T10:08:46.683Z,8.50
2017-08-26T10:11:14.209Z,8.37
2017-08-26T10:13:41.763Z,7.87
2017-08-26T10:16:09.296Z,7.53
2017-08-26T10:18:36.864Z,6.93
2017-08-26T10:21:04.395Z,7.63
2017-08-26T10:23:31.918Z,9.23
2017-08-26T10:25:59.442Z,8.50
2017-08-26T10:28:26.984Z,7.20
2017-08-26T10:30:54.515Z,9.07
2017-08-26T10:33:22.055Z,8.07
2017-08-26T10:35:49.593Z,11.97
2017-08-26T10:38:17.118Z,9.10
2017-08-26T10:40:44.652Z,7.70
2017-08-26T10:43:12.181Z,7.60
2017-08-26T10:45:39.751Z,7.57
2017-08-26T10:48:12.386Z,8.73
2017-08-26T10:50:39.958Z,8.53
2017-08-26T10:53:08.254Z,10.57
2017-08-26T10:55:35.784Z,9.20
2017-08-26T10:58:03.314Z,8.50
2017-08-26T11:00:30.843Z,6.57
2017-08-26T11:02:58.427Z,6.50
2017-08-26T11:05:25.959Z,6.13
2017-08-26T11:07:53.486Z,8.33
2017-08-26T11:10:21.012Z,6.90
2017-08-26T11:12:48.544Z,6.67
2017-08-26T11:15:16.080Z,7.03
2017-08-26T11:17:44.394Z,7.53
2017-08-26T11:20:11.923Z,6.63
2017-08-26T11:22:40.247Z,6.77
2017-08-26T11:25:07.780Z,6.83
2017-08-26T11:27:35.329Z,14.70
2017-08-26T11:30:02.850Z,6.63
2017-08-26T11:32:30.403Z,9.10
2017-08-26T11:34:57.930Z,8.73
2017-08-26T11:37:25.500Z,7.80
2017-08-26T11:39:53.033Z,10.40
2017-08-26T11:42:20.558Z,6.10
2017-08-26T11:44:48.087Z,7.13
2017-08-26T11:47:15.613Z,9.87
2017-08-26T11:49:43.906Z,7.43
2017-08-26T11:52:11.464Z,8.80
2017-08-26T11:54:39.010Z,6.93
2017-08-26T11:57:06.538Z,6.20
2017-08-26T11:59:42.207Z,7.00
2017-08-26T12:02:09.819Z,8.10
2017-08-26T12:04:37.387Z,8.83
2017-08-26T12:07:04.924Z,7.00
2017-08-26T12:09:32.503Z,7.50
2017-08-26T12:12:00.063Z,9.17
2017-08-26T12:14:27.591Z,8.27
2017-08-26T12:16:55.124Z,7.37
2017-08-26T12:19:22.650Z,8.03
2017-08-26T12:21:50.196Z,8.10
2017-08-26T12:24:17.731Z,8.10
2017-08-26T12:26:45.300Z,7.10
2017-08-26T12:29:12.836Z,8.67
2017-08-26T12:31:40.399Z,7.33
2017-08-26T12:34:07.942Z,10.90
2017-08-26T12:36:35.579Z,9.63
2017-08-26T12:39:03.115Z,9.80
2017-08-26T12:41:30.647Z,9.40
2017-08-26T12:43:58.254Z,9.20
2017-08-26T12:46:25.795Z,11.07
2017-08-26T12:48:53.376Z,10.47
2017-08-26T12:51:20.914Z,9.87
2017-08-26T12:53:48.479Z,10.53
2017-08-26T12:56:16.019Z,13.40
2017-08-26T12:58:43.576Z,8.83
2017-08-26T13:01:11.121Z,12.23
2017-08-26T13:03:44.661Z,14.30
2017-08-26T13:06:12.264Z,10.80
2017-08-26T13:08:39.919Z,11.33
2017-08-26T13:11:08.214Z,11.77
2017-08-26T13:13:35.737Z,10.97
2017-08-26T13:16:03.266Z,12.83
2017-08-26T13:18:30.794Z,12.50
2017-08-26T13:20:58.350Z,12.73
2017-08-26T13:23:25.902Z,14.93
2017-08-26T13:25:53.459Z,10.50
2017-08-26T13:28:20.987Z,10.63
2017-08-26T13:30:48.535Z,10.80
2017-08-26T13:33:16.066Z,14.73
2017-08-26T13:35:43.618Z,11.37
2017-08-26T13:38:11.152Z,10.10
2017-08-26T13:40:38.725Z,10.07
2017-08-26T13:43:06.258Z,11.93
2017-08-26T13:45:33.788Z,11.43
2017-08-26T13:48:01.323Z,10.70
2017-08-26T13:50:28.847Z,11.33
2017-08-26T13:52:56.397Z,10.13
2017-08-26T13:55:23.927Z,11.07
2017-08-26T13:57:51.485Z,8.93
2017-08-26T14:00:19.022Z,11.03
2017-08-26T14:02:46.577Z,10.83
2017-08-26T14:05:14.888Z,9.00
2017-08-26T14:07:42.551Z,11.77
2017-08-26T14:10:10.110Z,14.80
2017-08-26T14:12:37.681Z,14.53
2017-08-26T14:15:05.219Z,11.17
2017-08-26T14:17:32.802Z,11.80
2017-08-26T14:20:00.340Z,11.10
2017-08-26T14:22:27.879Z,10.97
2017-08-26T14:24:55.555Z,11.03
2017-08-26T14:27:23.095Z,12.57
2017-08-26T14:29:50.707Z,12.17
2017-08-26T14:32:18.255Z,12.17
2017-08-26T14:34:45.817Z,11.97
2017-08-26T14:37:13.358Z,11.40
2017-08-26T14:39:40.917Z,12.40
2017-08-26T14:42:08.451Z,10.60
2017-08-26T14:44:36.018Z,11.53
2017-08-26T14:47:03.563Z,11.33
2017-08-26T14:49:31.167Z,11.80
2017-08-26T14:51:58.737Z,10.50
2017-08-26T14:54:26.303Z,11.40
2017-08-26T14:56:53.860Z,10.10
2017-08-26T14:59:21.392Z,9.50
2017-08-26T15:01:48.957Z,10.50
2017-08-26T15:04:17.271Z,11.00
2017-08-26T15:06:44.803Z,11.80
2017-08-26T15:09:23.039Z,10.53
2017-08-26T15:11:50.574Z,14.17
2017-08-26T15:14:18.103Z,10.73
2017-08-26T15:16:45.719Z,10.37
2017-08-26T15:19:13.286Z,10.27
2017-08-26T15:21:40.862Z,10.97
2017-08-26T15:24:08.395Z,11.90
2017-08-26T15:26:35.997Z,10.90
2017-08-26T15:29:03.523Z,11.77
2017-08-26T15:31:31.124Z,11.27
2017-08-26T15:33:58.694Z,31.57
2017-08-26T15:36:26.223Z,10.50
2017-08-26T15:38:53.786Z,11.80
2017-08-26T15:41:21.323Z,10.27
2017-08-26T15:43:50.626Z,12.63
2017-08-26T15:46:18.222Z,14.77
2017-08-26T15:48:45.824Z,20.87
2017-08-26T15:51:13.384Z,10.07
2017-08-26T15:53:40.931Z,10.33
2017-08-26T15:56:15.119Z,14.20
2017-08-26T15:58:42.757Z,10.53
2017-08-26T16:01:10.648Z,10.80
2017-08-26T16:03:38.183Z,12.40
2017-08-26T16:06:05.773Z,11.10
2017-08-26T16:08:33.302Z,11.17
2017-08-26T16:11:00.833Z,9.83
2017-08-26T16:13:28.482Z,9.93
2017-08-26T16:15:56.128Z,9.77
2017-08-26T16:18:23.676Z,9.70
2017-08-26T16:20:51.219Z,11.37
2017-08-26T16:23:18.799Z,11.00
2017-08-26T16:25:46.332Z,12.70
2017-08-26T16:28:13.866Z,12.83
2017-08-26T16:30:42.166Z,11.00
2017-08-26T16:33:09.859Z,10.93
2017-08-26T16:35:40.339Z,12.10
2017-08-26T16:38:07.956Z,9.80
2017-08-26T16:40:35.500Z,11.93
2017-08-26T16:43:03.085Z,11.93
2017-08-26T16:48:24.879Z,20.40
2017-08-26T16:50:52.428Z,17.70
2017-08-26T16:53:19.960Z,15.83
2017-08-26T16:55:47.554Z,14.13
2017-08-26T16:58:15.090Z,14.43
2017-08-26T17:00:42.647Z,15.03
2017-08-26T17:03:10.188Z,14.20
2017-08-26T17:05:38.642Z,14.67
2017-08-26T17:08:06.179Z,15.63
2017-08-26T17:10:33.731Z,16.83
2017-08-26T17:13:01.283Z,18.27
2017-08-26T17:15:28.846Z,19.13
2017-08-26T17:17:56.386Z,18.33
2017-08-26T17:20:23.931Z,18.00
2017-08-26T17:22:51.464Z,17.53
2017-08-26T17:25:19.010Z,18.27
2017-08-26T17:27:46.573Z,16.50
2017-08-26T17:30:14.111Z,21.10
2017-08-26T17:32:41.667Z,17.83
2017-08-26T17:35:09.200Z,18.37
2017-08-26T17:37:37.526Z,19.30
2017-08-26T17:40:05.068Z,17.50
2017-08-26T17:42:32.623Z,16.63
2017-08-26T17:45:00.208Z,16.23
2017-08-26T17:47:27.766Z,19.17
2017-08-26T17:49:55.293Z,17.63
2017-08-26T17:52:23.631Z,20.67
2017-08-26T17:54:51.162Z,16.97
2017-08-26T17:57:18.726Z,17.20
2017-08-26T17:59:46.268Z,16.00
2017-08-26T18:02:13.847Z,15.70
2017-08-26T18:04:41.402Z,17.80
2017-08-26T18:07:08.934Z,18.37
2017-08-26T18:09:36.488Z,16.33
2017-08-26T18:12:04.018Z,20.13
2017-08-26T18:14:31.574Z,19.10
2017-08-26T18:16:59.112Z,20.03
2017-08-26T18:19:26.666Z,18.47
2017-08-26T18:21:54.198Z,17.10
2017-08-26T18:24:21.737Z,18.80
2017-08-26T18:26:49.298Z,18.87
2017-08-26T18:29:16.829Z,21.00
2017-08-26T18:31:44.451Z,19.57
2017-08-26T18:34:12.010Z,20.23
2017-08-26T18:36:39.584Z,20.63
2017-08-26T18:39:07.127Z,18.73
2017-08-26T18:41:34.719Z,18.40
2017-08-26T18:44:02.255Z,18.00
2017-08-26T18:46:29.839Z,18.20
2017-08-26T18:48:57.406Z,14.50
2017-08-26T18:51:24.964Z,16.33
2017-08-26T18:53:52.523Z,13.37
2017-08-26T18:56:20.055Z,12.07
2017-08-26T18:58:47.670Z,12.13
2017-08-26T19:01:15.207Z,11.83
2017-08-26T19:03:42.766Z,11.40
2017-08-26T19:06:10.331Z,10.77
2017-08-26T19:08:37.900Z,11.60
2017-08-26T19:11:05.442Z,12.17
2017-08-26T19:13:33.054Z,10.53
2017-08-26T19:16:00.611Z,11.13
2017-08-26T19:18:28.279Z,10.43
2017-08-26T19:20:55.835Z,11.23
2017-08-26T19:23:23.388Z,10.60
2017-08-26T19:25:50.928Z,12.20
2017-08-26T19:28:18.455Z,9.87
2017-08-26T19:30:46.087Z,9.60
2017-08-26T19:33:13.621Z,10.60
2017-08-26T19:35:41.209Z,12.33
2017-08-26T19:38:08.759Z,12.50
2017-08-26T19:40:36.347Z,14.60
2017-08-26T19:43:03.882Z,16.10
2017-08-26T19:45:31.416Z,15.90
2017-08-26T19:47:59.018Z,16.37
2017-08-26T19:50:26.562Z,14.43
2017-08-26T19:52:54.099Z,17.60
2017-08-26T19:55:21.638Z,18.90
2017-08-26T19:57:49.175Z,19.00
2017-08-26T20:00:16.738Z,17.63
2017-08-26T20:02:44.287Z,20.83
2017-08-26T20:05:11.827Z,19.53
2017-08-26T20:07:39.359Z,18.90
2017-08-26T20:10:06.926Z,23.77
2017-08-26T20:12:34.460Z,23.03
2017-08-26T20:15:02.066Z,25.00
2017-08-26T20:17:29.670Z,25.90
2017-08-26T20:19:57.304Z,29.10
2017-08-26T20:22:24.843Z,27.30
2017-08-26T20:24:52.378Z,25.27
2017-08-26T20:27:19.912Z,25.47
2017-08-26T20:29:47.453Z,27.10
2017-08-26T20:32:14.997Z,27.20
2017-08-26T20:34:42.540Z,27.63
2017-08-26T20:37:10.070Z,31.20
2017-08-26T20:39:37.601Z,27.90
2017-08-26T20:42:05.159Z,27.83
2017-08-26T20:44:32.695Z,28.90
2017-08-26T20:47:00.235Z,30.17
2017-08-26T20:49:27.818Z,35.43
2017-08-26T20:51:55.362Z,28.87
2017-08-26T20:54:22.895Z,27.27
2017-08-26T20:56:51.195Z,29.90
2017-08-26T20:59:18.726Z,29.10
2017-08-26T21:01:46.262Z,28.83
2017-08-26T21:04:13.794Z,32.57
2017-08-26T21:06:41.327Z,30.93
2017-08-26T21:09:09.637Z,28.43
2017-08-26T21:11:37.171Z,29.70
2017-08-26T21:14:04.735Z,29.73
2017-08-26T21:16:32.291Z,28.27
2017-08-26T21:18:59.847Z,30.27
2017-08-26T21:21:27.415Z,30.03
2017-08-26T21:23:55.086Z,28.87
2017-08-26T21:26:22.622Z,28.13
2017-08-26T21:28:50.163Z,29.30
2017-08-26T21:31:18.462Z,27.87
2017-08-26T21:33:46.043Z,28.20
2017-08-26T21:36:13.603Z,27.73
2017-08-26T21:38:41.163Z,29.10
2017-08-26T21:41:08.718Z,28.00
2017-08-26T21:43:36.256Z,28.87
2017-08-26T21:46:03.842Z,28.50
2017-08-26T21:48:31.382Z,28.53
2017-08-26T21:50:58.943Z,29.17
2017-08-26T21:53:26.474Z,33.13
2017-08-26T21:55:54.030Z,28.53
2017-08-26T21:58:21.567Z,27.77
2017-08-26T22:00:49.142Z,29.50
2017-08-26T22:03:16.676Z,30.07
2017-08-26T22:05:44.216Z,28.93
2017-08-26T22:08:11.747Z,30.80
2017-08-26T22:10:40.041Z,30.40
2017-08-26T22:13:07.579Z,29.30
2017-08-26T22:15:35.120Z,32.93
2017-08-26T22:18:02.650Z,30.17
2017-08-26T22:20:30.207Z,31.83
2017-08-26T22:22:57.738Z,31.10
2017-08-26T22:25:25.274Z,32.30
2017-08-26T22:27:52.815Z,34.17
2017-08-26T22:30:20.358Z,32.87
2017-08-26T22:32:47.992Z,36.00
2017-08-26T22:35:15.529Z,33.87
2017-08-26T22:37:43.066Z,33.60
2017-08-26T22:40:11.370Z,32.63
2017-08-26T22:42:38.946Z,34.90
2017-08-26T22:45:06.475Z,32.93
2017-08-26T22:47:34.014Z,33.67
2017-08-26T22:50:01.551Z,32.40
2017-08-26T22:52:29.081Z,31.63
2017-08-26T22:54:56.622Z,32.23
2017-08-26T22:57:24.154Z,28.30
2017-08-26T22:59:51.692Z,30.60
2017-08-26T23:02:19.227Z,30.77
2017-08-26T23:04:46.758Z,30.50
2017-08-26T23:07:14.291Z,31.87
2017-08-26T23:09:41.822Z,30.97
2017-08-26T23:12:10.183Z,31.17
2017-08-26T23:14:37.742Z,34.30
2017-08-26T23:17:05.275Z,30.40
2017-08-26T23:19:32.849Z,32.47
2017-08-26T23:22:00.395Z,29.93
2017-08-26T23:24:27.963Z,33.70
2017-08-26T23:26:55.494Z,32.47
2017-08-26T23:29:23.022Z,32.40
2017-08-26T23:31:50.551Z,32.90
2017-08-26T23:34:18.083Z,34.33
2017-08-26T23:36:45.704Z,31.53
2017-08-26T23:39:13.235Z,30.73
2017-08-26T23:41:40.772Z,31.23
2017-08-26T23:44:08.303Z,30.17
2017-08-26T23:46:35.858Z,31.67
2017-08-26T23:49:03.399Z,31.37
2017-08-26T23:51:30.963Z,29.73
2017-08-26T23:53:58.490Z,30.50
2017-08-26T23:56:26.083Z,37.13
2017-08-26T23:58:53.627Z,29.47
